aviador You're here:

YABA Decoded Metar

in
Report Time2018-06-24 09:00:00
UTC Time2018-06-24 09:18:31
Flight Rules vfr VFR
Wind360° at 04 kt
W.Decomp.*RWY 32: 3.1 kt HW 2.6 kt RCW
RWY 05: 2.6 kt HW 3.1 kt LCW
Visibility9999 m
Phenomena:N/A
Clouds:Scattered 062 Hf
Expected CloudBase > 1,600 ft AGL from Temp-Dew spread
CeilingNone
Temp14°C
Dew Point10°C (77% RH)
AAT12.6°C
QNH1029 hPa
Raw Report
METAR YABA 240900Z AUTO 36004KT 9999 // SCT062 14/10 Q1029=

Extra information for YABA:More info

Social comments